Dai Shan Hai — 3FDE6 — position and weather

sailwx.info

Track history (hours):
 
Tides and Currents Weather Stations Pressure Air Temp Water Temp Dewpoint Dewpoint Depression Visibility Wind Speed Wind Dir Waves Ship Positions

Dai Shan Hai

Last reported at 2017-Oct-27 19:01 UTC. Time now 2017-Nov-19 21:50 UTC.
Position N 37°22' E 025°55'.
Warning: this ship's position is 23 days out of date.

Length 190 m; draft 12.8 m.

Type: Cargo ship. MMSI: 371911000.

Date/timePositionNaut miles runAvg speedWind from/ knotsBaromVisibWave heightAir tempDewpointWater temp
2017-Oct-27 19:01N 37°22' E 025°55'011.0
2017-Oct-27 19:00N 37°22' E 025°55'611.3
2017-Oct-27 18:30N 37°27' E 025°52'611.4
2017-Oct-27 18:00N 37°33' E 025°50'812.0
2017-Oct-27 17:22N 37°40' E 025°47'411.7
2017-Oct-27 17:00N 37°44' E 025°45'611.7
2017-Oct-27 16:30N 37°49' E 025°43'11511.1
2017-Oct-27 06:12N 39°44' E 025°49'2011.0
2017-Oct-27 04:26N 40°01' E 026°02'14011.0
2017-Oct-26 15:45N 40°55' E 028°52'2 8.1
2017-Oct-26 15:30N 40°57' E 028°53'1 0.8
2017-Oct-26 14:52N 40°57' E 028°53'0 0.0
2017-Oct-26 13:10N 40°57' E 028°53'0 0.0
2017-Oct-26 12:52N 40°57' E 028°53'0 0.0
2017-Oct-26 12:28N 40°57' E 028°53'0 0.0
2017-Oct-24 23:21N 40°57' E 028°53'0 0.6
2017-Oct-24 22:58N 40°57' E 028°54'1 2.2
2017-Oct-24 22:28N 40°57' E 028°55'3 6.7
2017-Oct-24 22:01N 40°59' E 028°58'89 3.9
2017-Oct-23 23:30N 41°55' E 030°30'3111.4
2017-Oct-23 20:48N 42°10' E 031°07'311.2
2017-Oct-23 20:30N 42°11' E 031°11'611.3
2017-Oct-23 19:58N 42°14' E 031°18'711.3
2017-Oct-23 19:23N 42°17' E 031°26'411.5
2017-Oct-23 19:00N 42°19' E 031°31'711.8
2017-Oct-23 18:27N 42°22' E 031°39'26511.2
2017-Oct-22 18:45N 45°03' E 036°31'4 8.7
2017-Oct-22 18:15N 45°07' E 036°31'1 5.7
2017-Oct-22 18:00N 45°09' E 036°32'1 1.9
2017-Oct-22 17:29N 45°09' E 036°33'0 0.0
2017-Oct-22 16:59N 45°09' E 036°33'0 0.1
2017-Oct-22 16:29N 45°09' E 036°33'0 0.1
2017-Oct-22 15:59N 45°09' E 036°33'0 0.1
2017-Oct-22 15:26N 45°09' E 036°33'0 0.1
2017-Oct-22 14:59N 45°09' E 036°33'0 0.1
2017-Oct-22 14:29N 45°09' E 036°33'0 0.0
2017-Oct-22 13:59N 45°09' E 036°33'0 0.0
2017-Oct-22 13:26N 45°09' E 036°33'0 0.0
2017-Oct-22 12:59N 45°09' E 036°33'0 0.0
2017-Oct-22 12:29N 45°09' E 036°33'0 0.2
2017-Oct-22 11:59N 45°09' E 036°33'0 0.1
2017-Oct-22 11:29N 45°09' E 036°33'0 0.1
2017-Oct-22 10:59N 45°09' E 036°33'0 0.0
2017-Oct-22 10:14N 45°09' E 036°33'0 0.1
2017-Oct-22 09:59N 45°09' E 036°33'0 0.0
2017-Oct-22 09:29N 45°09' E 036°33'0 0.1
2017-Oct-22 08:59N 45°09' E 036°33'0 0.1
2017-Oct-22 08:26N 45°09' E 036°33'0 0.0
2017-Oct-22 07:47N 45°09' E 036°33'0 0.0
2017-Oct-22 07:23N 45°09' E 036°33'0 0.0
2017-Oct-22 06:56N 45°09' E 036°33'0 0.1
2017-Oct-22 06:29N 45°09' E 036°33'0 0.0
2017-Oct-22 05:59N 45°09' E 036°33'0 0.0
2017-Oct-22 05:26N 45°09' E 036°33'0 0.0
2017-Oct-22 04:59N 45°09' E 036°33'0 0.0
2017-Oct-22 04:26N 45°09' E 036°33'0 0.0
2017-Oct-22 03:56N 45°09' E 036°33'0 0.0
2017-Oct-22 03:26N 45°09' E 036°33'0 0.0
2017-Oct-22 02:56N 45°09' E 036°33'0 0.0
2017-Oct-22 02:29N 45°09' E 036°33'0 0.0
2017-Oct-22 01:59N 45°09' E 036°33'0 0.0
2017-Oct-22 01:29N 45°09' E 036°33'0 0.0
2017-Oct-22 00:56N 45°09' E 036°33'0 0.0
2017-Oct-22 00:29N 45°09' E 036°33'0 0.0
2017-Oct-21 23:59N 45°09' E 036°33'0 0.0
2017-Oct-21 23:29N 45°09' E 036°33'0 0.0
2017-Oct-21 22:59N 45°09' E 036°33'0 0.0
2017-Oct-21 22:29N 45°09' E 036°33'0 0.0
2017-Oct-21 21:59N 45°09' E 036°33'0 0.0
2017-Oct-21 21:29N 45°09' E 036°33'0 0.0
2017-Oct-21 20:59N 45°09' E 036°33'0 0.0
2017-Oct-21 20:23N 45°09' E 036°33'0 0.0
2017-Oct-21 19:59N 45°09' E 036°33'0 0.0
2017-Oct-21 19:29N 45°09' E 036°33'0 0.0
2017-Oct-21 18:56N 45°09' E 036°33'0 0.0
2017-Oct-21 18:29N 45°09' E 036°33'0 0.0
2017-Oct-21 17:59N 45°09' E 036°33'0 0.0
2017-Oct-21 17:29N 45°09' E 036°33'0 0.1
2017-Oct-21 16:59N 45°09' E 036°33'0 0.0
2017-Oct-21 16:29N 45°09' E 036°33'0 0.0
2017-Oct-21 15:59N 45°09' E 036°33'0 0.0
2017-Oct-21 15:29N 45°09' E 036°33'0 0.0
2017-Oct-21 14:59N 45°09' E 036°33'0 0.0
2017-Oct-21 14:29N 45°09' E 036°33'0 0.0
2017-Oct-21 13:29N 45°09' E 036°33'0 0.1
2017-Oct-21 12:59N 45°09' E 036°33'0 0.0
2017-Oct-21 12:29N 45°09' E 036°33'0 0.0
2017-Oct-21 11:50N 45°09' E 036°33'0 0.1
2017-Oct-21 11:29N 45°09' E 036°33'0 0.0
2017-Oct-21 10:59N 45°09' E 036°33'0 0.0
2017-Oct-21 10:29N 45°09' E 036°33'0 0.0
2017-Oct-21 09:59N 45°09' E 036°33'0 0.0
2017-Oct-21 09:29N 45°09' E 036°33'0 0.0
2017-Oct-21 08:59N 45°09' E 036°33'0 0.0
2017-Oct-21 08:29N 45°09' E 036°33'0 0.0
2017-Oct-21 07:59N 45°09' E 036°33'0 0.0
2017-Oct-21 07:26N 45°09' E 036°33'0 0.0
2017-Oct-21 06:56N 45°09' E 036°33'0 0.0
2017-Oct-21 06:29N 45°09' E 036°33'0 0.1
2017-Oct-21 05:56N 45°09' E 036°33'0 0.0
2017-Oct-21 05:26N 45°09' E 036°33'0 0.1
2017-Oct-21 04:56N 45°09' E 036°33'0 0.1
2017-Oct-21 04:29N 45°09' E 036°33'0 0.0
2017-Oct-21 03:59N 45°09' E 036°33'0 0.0
2017-Oct-21 02:56N 45°09' E 036°33'0 0.0
2017-Oct-21 02:26N 45°09' E 036°33'0 0.0
2017-Oct-21 01:59N 45°09' E 036°33'0 0.0
2017-Oct-21 01:29N 45°09' E 036°33'0 0.0
2017-Oct-21 00:41N 45°09' E 036°33'0 0.0
2017-Oct-21 00:26N 45°09' E 036°33'0 0.0
2017-Oct-20 23:59N 45°09' E 036°33'0 0.0
2017-Oct-20 23:29N 45°09' E 036°33'0 0.0
2017-Oct-20 22:59N 45°09' E 036°33'0 0.0
2017-Oct-20 22:26N 45°09' E 036°33'0 0.1
2017-Oct-20 21:59N 45°09' E 036°33'0 0.0
2017-Oct-20 21:29N 45°09' E 036°33'0 0.0
2017-Oct-20 20:26N 45°09' E 036°33'0 0.1
2017-Oct-20 19:56N 45°09' E 036°33'0 0.0
2017-Oct-20 19:29N 45°09' E 036°33'0 0.0
2017-Oct-20 18:38N 45°09' E 036°33'0 0.0
2017-Oct-20 18:26N 45°09' E 036°33'0 0.0
2017-Oct-20 17:59N 45°09' E 036°33'0 0.1
2017-Oct-20 17:29N 45°09' E 036°33'0 0.2
2017-Oct-20 16:14N 45°09' E 036°33'0 0.1
2017-Oct-20 15:59N 45°09' E 036°33'0 0.0
2017-Oct-20 14:23N 45°09' E 036°33'0 0.0
2017-Oct-20 13:29N 45°09' E 036°33'0 0.0
2017-Oct-20 12:53N 45°09' E 036°33'0 0.0
2017-Oct-20 12:29N 45°09' E 036°33'0 0.0
2017-Oct-20 11:47N 45°09' E 036°33'0 0.0
2017-Oct-20 11:29N 45°09' E 036°33'0 0.1
2017-Oct-20 10:59N 45°09' E 036°33'0 0.1
2017-Oct-20 10:29N 45°09' E 036°33'0 0.1
2017-Oct-20 09:56N 45°09' E 036°33'0 0.0
2017-Oct-20 09:29N 45°09' E 036°33'0 0.0
2017-Oct-20 08:53N 45°09' E 036°33'0 0.0
2017-Oct-20 08:29N 45°09' E 036°33'0 0.0
2017-Oct-20 07:59N 45°09' E 036°33'0 0.0
2017-Oct-20 07:29N 45°09' E 036°33'0 0.0
2017-Oct-20 06:59N 45°09' E 036°33'0 0.0
2017-Oct-20 06:14N 45°09' E 036°33'0 0.1
2017-Oct-20 05:59N 45°09' E 036°33'0 0.0
2017-Oct-20 05:29N 45°09' E 036°33'0 0.0
2017-Oct-20 04:59N 45°09' E 036°33'0 0.0
2017-Oct-20 04:17N 45°09' E 036°33'0 0.1
2017-Oct-20 03:56N 45°09' E 036°33'0 0.1
2017-Oct-20 03:26N 45°09' E 036°33'0 0.1
2017-Oct-20 02:50N 45°09' E 036°33'0 0.0
2017-Oct-20 02:29N 45°09' E 036°33'0 0.0
2017-Oct-20 01:56N 45°09' E 036°33'0 0.0
2017-Oct-20 01:29N 45°09' E 036°33'0 0.1
2017-Oct-20 00:08N 45°09' E 036°33'0 0.0
2017-Oct-19 23:59N 45°09' E 036°33'0 0.1
2017-Oct-19 23:29N 45°09' E 036°33'0 0.0
2017-Oct-19 22:14N 45°09' E 036°33'0 0.0
2017-Oct-19 21:47N 45°09' E 036°33'0 0.0
2017-Oct-19 20:20N 45°09' E 036°33'0 0.0
2017-Oct-19 19:59N 45°09' E 036°33'0 0.0
2017-Oct-19 17:38N 45°09' E 036°33'0 0.0
2017-Oct-19 16:23N 45°09' E 036°33'0 0.0
2017-Oct-19 15:59N 45°09' E 036°33'0 0.0
2017-Oct-19 15:29N 45°09' E 036°33'0 0.0
2017-Oct-19 14:17N 45°09' E 036°33'0 0.0
2017-Oct-19 13:20N 45°09' E 036°33'0 0.0
2017-Oct-19 12:59N 45°09' E 036°33'0 0.1
2017-Oct-19 12:29N 45°09' E 036°33'0 0.0
2017-Oct-19 11:59N 45°09' E 036°33'0 0.0
2017-Oct-19 11:29N 45°09' E 036°33'0 0.0
2017-Oct-19 10:56N 45°09' E 036°33'0 0.0
2017-Oct-19 10:29N 45°09' E 036°33'0 0.0
2017-Oct-19 09:56N 45°09' E 036°33'0 0.0
2017-Oct-19 09:26N 45°09' E 036°33'0 0.0
2017-Oct-19 08:56N 45°09' E 036°33'0 0.1
2017-Oct-19 08:29N 45°09' E 036°33'0 0.0
2017-Oct-19 07:59N 45°09' E 036°33'0 0.0
2017-Oct-19 07:14N 45°09' E 036°33'0 0.0
2017-Oct-19 06:59N 45°09' E 036°33'0 0.0
2017-Oct-19 06:26N 45°09' E 036°33'0 0.0
2017-Oct-19 05:56N 45°09' E 036°33'0 0.0
2017-Oct-19 05:17N 45°09' E 036°33'0 0.0
2017-Oct-19 04:59N 45°09' E 036°33'0 0.1
2017-Oct-19 04:29N 45°09' E 036°33'0 0.0
2017-Oct-19 03:17N 45°09' E 036°33'0 0.0
2017-Oct-19 02:35N 45°09' E 036°33'0 0.0
2017-Oct-19 02:29N 45°09' E 036°33'0 0.0
2017-Oct-19 01:59N 45°09' E 036°33'0 0.0
2017-Oct-19 00:50N 45°09' E 036°33'0 0.0
2017-Oct-19 00:26N 45°09' E 036°33'0 0.0
2017-Oct-18 23:56N 45°09' E 036°33'0 0.0
2017-Oct-18 23:29N 45°09' E 036°33'0 0.0
2017-Oct-18 22:53N 45°09' E 036°33'0 0.0
2017-Oct-18 22:29N 45°09' E 036°33'0 0.0
2017-Oct-18 21:59N 45°09' E 036°33'0 0.0
2017-Oct-18 20:53N 45°09' E 036°33'0 0.0
2017-Oct-18 20:29N 45°09' E 036°33'0 0.0
2017-Oct-18 19:53N 45°09' E 036°33'0 0.0
2017-Oct-18 18:50N 45°09' E 036°33'0 0.0
2017-Oct-18 18:29N 45°09' E 036°33'0 0.0
2017-Oct-18 17:59N 45°09' E 036°33'0 0.0
2017-Oct-18 16:44N 45°09' E 036°33'0 0.0
2017-Oct-18 16:29N 45°09' E 036°33'0 0.0
2017-Oct-18 15:56N 45°09' E 036°33'0 0.0
2017-Oct-18 13:05N 45°09' E 036°33'0 0.0
2017-Oct-18 12:59N 45°09' E 036°33'0 0.0
2017-Oct-18 12:29N 45°09' E 036°33'0 0.0
2017-Oct-18 11:53N 45°09' E 036°33'0 0.2
2017-Oct-18 11:29N 45°09' E 036°33'0 0.2
2017-Oct-18 10:59N 45°09' E 036°33'0 0.1
2017-Oct-18 10:29N 45°09' E 036°33'0 0.0
2017-Oct-18 09:59N 45°09' E 036°33'0 0.1
2017-Oct-18 09:29N 45°09' E 036°33'0 0.1
2017-Oct-18 08:56N 45°09' E 036°33'0 0.0
2017-Oct-18 08:29N 45°09' E 036°33'0 0.0
2017-Oct-18 07:59N 45°09' E 036°33'0 0.0
2017-Oct-18 07:26N 45°09' E 036°33'0 0.0
2017-Oct-18 06:59N 45°09' E 036°33'0 0.1
2017-Oct-18 06:29N 45°09' E 036°33'0 0.0
2017-Oct-18 05:59N 45°09' E 036°33'0 0.0
2017-Oct-18 05:29N 45°09' E 036°33'0 0.0
2017-Oct-18 04:59N 45°09' E 036°33'0 0.1
2017-Oct-18 04:26N 45°09' E 036°33'0 0.0
2017-Oct-18 03:59N 45°09' E 036°33'0 0.0
2017-Oct-18 03:29N 45°09' E 036°33'0 0.1
2017-Oct-18 02:59N 45°09' E 036°33'0 0.1
2017-Oct-18 02:29N 45°09' E 036°33'0 0.0
2017-Oct-18 01:38N 45°09' E 036°33'0 0.1
2017-Oct-18 01:29N 45°09' E 036°33'0 0.0
2017-Oct-18 00:59N 45°09' E 036°33'0 0.1
2017-Oct-18 00:29N 45°09' E 036°33'0 0.0
2017-Oct-17 23:11N 45°09' E 036°33'0 0.1
2017-Oct-17 22:41N 45°09' E 036°33'0 0.0
2017-Oct-17 22:29N 45°09' E 036°33'0 0.0
2017-Oct-17 21:59N 45°09' E 036°33'0 0.0
2017-Oct-17 21:20N 45°09' E 036°33'0 0.0
2017-Oct-17 20:53N 45°09' E 036°33'0 0.0
2017-Oct-17 20:23N 45°09' E 036°33'0 0.0
2017-Oct-17 19:56N 45°09' E 036°33'0 0.0
2017-Oct-17 19:26N 45°09' E 036°33'  
Track history (hours):
 
Tides and Currents Weather Stations Pressure Air Temp Water Temp Dewpoint Dewpoint Depression Visibility Wind Speed Wind Dir Waves Ship Positions

Dai Shan Hai

Last reported at 2017-Oct-27 19:01 UTC. Time now 2017-Nov-19 21:50 UTC.
Position N 37°22' E 025°55'.
Warning: this ship's position is 23 days out of date.

Length 190 m; draft 12.8 m.

Type: Cargo ship. MMSI: 371911000.

Date/timePositionNaut miles runAvg speedWind from/ knotsBaromVisibWave heightAir tempDewpointWater temp
2017-Oct-27 19:01N 37°22' E 025°55'011.0
2017-Oct-27 19:00N 37°22' E 025°55'611.3
2017-Oct-27 18:30N 37°27' E 025°52'611.4
2017-Oct-27 18:00N 37°33' E 025°50'812.0
2017-Oct-27 17:22N 37°40' E 025°47'411.7
2017-Oct-27 17:00N 37°44' E 025°45'611.7
2017-Oct-27 16:30N 37°49' E 025°43'11511.1
2017-Oct-27 06:12N 39°44' E 025°49'2011.0
2017-Oct-27 04:26N 40°01' E 026°02'14011.0
2017-Oct-26 15:45N 40°55' E 028°52'2 8.1
2017-Oct-26 15:30N 40°57' E 028°53'1 0.8
2017-Oct-26 14:52N 40°57' E 028°53'0 0.0
2017-Oct-26 13:10N 40°57' E 028°53'0 0.0
2017-Oct-26 12:52N 40°57' E 028°53'0 0.0
2017-Oct-26 12:28N 40°57' E 028°53'0 0.0
2017-Oct-24 23:21N 40°57' E 028°53'0 0.6
2017-Oct-24 22:58N 40°57' E 028°54'1 2.2
2017-Oct-24 22:28N 40°57' E 028°55'3 6.7
2017-Oct-24 22:01N 40°59' E 028°58'89 3.9
2017-Oct-23 23:30N 41°55' E 030°30'3111.4
2017-Oct-23 20:48N 42°10' E 031°07'311.2
2017-Oct-23 20:30N 42°11' E 031°11'611.3
2017-Oct-23 19:58N 42°14' E 031°18'711.3
2017-Oct-23 19:23N 42°17' E 031°26'411.5
2017-Oct-23 19:00N 42°19' E 031°31'711.8
2017-Oct-23 18:27N 42°22' E 031°39'26511.2
2017-Oct-22 18:45N 45°03' E 036°31'4 8.7
2017-Oct-22 18:15N 45°07' E 036°31'1 5.7
2017-Oct-22 18:00N 45°09' E 036°32'1 1.9
2017-Oct-22 17:29N 45°09' E 036°33'0 0.0
2017-Oct-22 16:59N 45°09' E 036°33'0 0.1
2017-Oct-22 16:29N 45°09' E 036°33'0 0.1
2017-Oct-22 15:59N 45°09' E 036°33'0 0.1
2017-Oct-22 15:26N 45°09' E 036°33'0 0.1
2017-Oct-22 14:59N 45°09' E 036°33'0 0.1
2017-Oct-22 14:29N 45°09' E 036°33'0 0.0
2017-Oct-22 13:59N 45°09' E 036°33'0 0.0
2017-Oct-22 13:26N 45°09' E 036°33'0 0.0
2017-Oct-22 12:59N 45°09' E 036°33'0 0.0
2017-Oct-22 12:29N 45°09' E 036°33'0 0.2
2017-Oct-22 11:59N 45°09' E 036°33'0 0.1
2017-Oct-22 11:29N 45°09' E 036°33'0 0.1
2017-Oct-22 10:59N 45°09' E 036°33'0 0.0
2017-Oct-22 10:14N 45°09' E 036°33'0 0.1
2017-Oct-22 09:59N 45°09' E 036°33'0 0.0
2017-Oct-22 09:29N 45°09' E 036°33'0 0.1
2017-Oct-22 08:59N 45°09' E 036°33'0 0.1
2017-Oct-22 08:26N 45°09' E 036°33'0 0.0
2017-Oct-22 07:47N 45°09' E 036°33'0 0.0
2017-Oct-22 07:23N 45°09' E 036°33'0 0.0
2017-Oct-22 06:56N 45°09' E 036°33'0 0.1
2017-Oct-22 06:29N 45°09' E 036°33'0 0.0
2017-Oct-22 05:59N 45°09' E 036°33'0 0.0
2017-Oct-22 05:26N 45°09' E 036°33'0 0.0
2017-Oct-22 04:59N 45°09' E 036°33'0 0.0
2017-Oct-22 04:26N 45°09' E 036°33'0 0.0
2017-Oct-22 03:56N 45°09' E 036°33'0 0.0
2017-Oct-22 03:26N 45°09' E 036°33'0 0.0
2017-Oct-22 02:56N 45°09' E 036°33'0 0.0
2017-Oct-22 02:29N 45°09' E 036°33'0 0.0
2017-Oct-22 01:59N 45°09' E 036°33'0 0.0
2017-Oct-22 01:29N 45°09' E 036°33'0 0.0
2017-Oct-22 00:56N 45°09' E 036°33'0 0.0
2017-Oct-22 00:29N 45°09' E 036°33'0 0.0
2017-Oct-21 23:59N 45°09' E 036°33'0 0.0
2017-Oct-21 23:29N 45°09' E 036°33'0 0.0
2017-Oct-21 22:59N 45°09' E 036°33'0 0.0
2017-Oct-21 22:29N 45°09' E 036°33'0 0.0
2017-Oct-21 21:59N 45°09' E 036°33'0 0.0
2017-Oct-21 21:29N 45°09' E 036°33'0 0.0
2017-Oct-21 20:59N 45°09' E 036°33'0 0.0
2017-Oct-21 20:23N 45°09' E 036°33'0 0.0
2017-Oct-21 19:59N 45°09' E 036°33'0 0.0
2017-Oct-21 19:29N 45°09' E 036°33'0 0.0
2017-Oct-21 18:56N 45°09' E 036°33'0 0.0
2017-Oct-21 18:29N 45°09' E 036°33'0 0.0
2017-Oct-21 17:59N 45°09' E 036°33'0 0.0
2017-Oct-21 17:29N 45°09' E 036°33'0 0.1
2017-Oct-21 16:59N 45°09' E 036°33'0 0.0
2017-Oct-21 16:29N 45°09' E 036°33'0 0.0
2017-Oct-21 15:59N 45°09' E 036°33'0 0.0
2017-Oct-21 15:29N 45°09' E 036°33'0 0.0
2017-Oct-21 14:59N 45°09' E 036°33'0 0.0
2017-Oct-21 14:29N 45°09' E 036°33'0 0.0
2017-Oct-21 13:29N 45°09' E 036°33'0 0.1
2017-Oct-21 12:59N 45°09' E 036°33'0 0.0
2017-Oct-21 12:29N 45°09' E 036°33'0 0.0
2017-Oct-21 11:50N 45°09' E 036°33'0 0.1
2017-Oct-21 11:29N 45°09' E 036°33'0 0.0
2017-Oct-21 10:59N 45°09' E 036°33'0 0.0
2017-Oct-21 10:29N 45°09' E 036°33'0 0.0
2017-Oct-21 09:59N 45°09' E 036°33'0 0.0
2017-Oct-21 09:29N 45°09' E 036°33'0 0.0
2017-Oct-21 08:59N 45°09' E 036°33'0 0.0
2017-Oct-21 08:29N 45°09' E 036°33'0 0.0
2017-Oct-21 07:59N 45°09' E 036°33'0 0.0
2017-Oct-21 07:26N 45°09' E 036°33'0 0.0
2017-Oct-21 06:56N 45°09' E 036°33'0 0.0
2017-Oct-21 06:29N 45°09' E 036°33'0 0.1
2017-Oct-21 05:56N 45°09' E 036°33'0 0.0
2017-Oct-21 05:26N 45°09' E 036°33'0 0.1
2017-Oct-21 04:56N 45°09' E 036°33'0 0.1
2017-Oct-21 04:29N 45°09' E 036°33'0 0.0
2017-Oct-21 03:59N 45°09' E 036°33'0 0.0
2017-Oct-21 02:56N 45°09' E 036°33'0 0.0
2017-Oct-21 02:26N 45°09' E 036°33'0 0.0
2017-Oct-21 01:59N 45°09' E 036°33'0 0.0
2017-Oct-21 01:29N 45°09' E 036°33'0 0.0
2017-Oct-21 00:41N 45°09' E 036°33'0 0.0
2017-Oct-21 00:26N 45°09' E 036°33'0 0.0
2017-Oct-20 23:59N 45°09' E 036°33'0 0.0
2017-Oct-20 23:29N 45°09' E 036°33'0 0.0
2017-Oct-20 22:59N 45°09' E 036°33'0 0.0
2017-Oct-20 22:26N 45°09' E 036°33'0 0.1
2017-Oct-20 21:59N 45°09' E 036°33'0 0.0
2017-Oct-20 21:29N 45°09' E 036°33'0 0.0
2017-Oct-20 20:26N 45°09' E 036°33'0 0.1
2017-Oct-20 19:56N 45°09' E 036°33'0 0.0
2017-Oct-20 19:29N 45°09' E 036°33'0 0.0
2017-Oct-20 18:38N 45°09' E 036°33'0 0.0
2017-Oct-20 18:26N 45°09' E 036°33'0 0.0
2017-Oct-20 17:59N 45°09' E 036°33'0 0.1
2017-Oct-20 17:29N 45°09' E 036°33'0 0.2
2017-Oct-20 16:14N 45°09' E 036°33'0 0.1
2017-Oct-20 15:59N 45°09' E 036°33'0 0.0
2017-Oct-20 14:23N 45°09' E 036°33'0 0.0
2017-Oct-20 13:29N 45°09' E 036°33'0 0.0
2017-Oct-20 12:53N 45°09' E 036°33'0 0.0
2017-Oct-20 12:29N 45°09' E 036°33'0 0.0
2017-Oct-20 11:47N 45°09' E 036°33'0 0.0
2017-Oct-20 11:29N 45°09' E 036°33'0 0.1
2017-Oct-20 10:59N 45°09' E 036°33'0 0.1
2017-Oct-20 10:29N 45°09' E 036°33'0 0.1
2017-Oct-20 09:56N 45°09' E 036°33'0 0.0
2017-Oct-20 09:29N 45°09' E 036°33'0 0.0
2017-Oct-20 08:53N 45°09' E 036°33'0 0.0
2017-Oct-20 08:29N 45°09' E 036°33'0 0.0
2017-Oct-20 07:59N 45°09' E 036°33'0 0.0
2017-Oct-20 07:29N 45°09' E 036°33'0 0.0
2017-Oct-20 06:59N 45°09' E 036°33'0 0.0
2017-Oct-20 06:14N 45°09' E 036°33'0 0.1
2017-Oct-20 05:59N 45°09' E 036°33'0 0.0
2017-Oct-20 05:29N 45°09' E 036°33'0 0.0
2017-Oct-20 04:59N 45°09' E 036°33'0 0.0
2017-Oct-20 04:17N 45°09' E 036°33'0 0.1
2017-Oct-20 03:56N 45°09' E 036°33'0 0.1
2017-Oct-20 03:26N 45°09' E 036°33'0 0.1
2017-Oct-20 02:50N 45°09' E 036°33'0 0.0
2017-Oct-20 02:29N 45°09' E 036°33'0 0.0
2017-Oct-20 01:56N 45°09' E 036°33'0 0.0
2017-Oct-20 01:29N 45°09' E 036°33'0 0.1
2017-Oct-20 00:08N 45°09' E 036°33'0 0.0
2017-Oct-19 23:59N 45°09' E 036°33'0 0.1
2017-Oct-19 23:29N 45°09' E 036°33'0 0.0
2017-Oct-19 22:14N 45°09' E 036°33'0 0.0
2017-Oct-19 21:47N 45°09' E 036°33'0 0.0
2017-Oct-19 20:20N 45°09' E 036°33'0 0.0
2017-Oct-19 19:59N 45°09' E 036°33'0 0.0
2017-Oct-19 17:38N 45°09' E 036°33'0 0.0
2017-Oct-19 16:23N 45°09' E 036°33'0 0.0
2017-Oct-19 15:59N 45°09' E 036°33'0 0.0
2017-Oct-19 15:29N 45°09' E 036°33'0 0.0
2017-Oct-19 14:17N 45°09' E 036°33'0 0.0
2017-Oct-19 13:20N 45°09' E 036°33'0 0.0
2017-Oct-19 12:59N 45°09' E 036°33'0 0.1
2017-Oct-19 12:29N 45°09' E 036°33'0 0.0
2017-Oct-19 11:59N 45°09' E 036°33'0 0.0
2017-Oct-19 11:29N 45°09' E 036°33'0 0.0
2017-Oct-19 10:56N 45°09' E 036°33'0 0.0
2017-Oct-19 10:29N 45°09' E 036°33'0 0.0
2017-Oct-19 09:56N 45°09' E 036°33'0 0.0
2017-Oct-19 09:26N 45°09' E 036°33'0 0.0
2017-Oct-19 08:56N 45°09' E 036°33'0 0.1
2017-Oct-19 08:29N 45°09' E 036°33'0 0.0
2017-Oct-19 07:59N 45°09' E 036°33'0 0.0
2017-Oct-19 07:14N 45°09' E 036°33'0 0.0
2017-Oct-19 06:59N 45°09' E 036°33'0 0.0
2017-Oct-19 06:26N 45°09' E 036°33'0 0.0
2017-Oct-19 05:56N 45°09' E 036°33'0 0.0
2017-Oct-19 05:17N 45°09' E 036°33'0 0.0
2017-Oct-19 04:59N 45°09' E 036°33'0 0.1
2017-Oct-19 04:29N 45°09' E 036°33'0 0.0
2017-Oct-19 03:17N 45°09' E 036°33'0 0.0
2017-Oct-19 02:35N 45°09' E 036°33'0 0.0
2017-Oct-19 02:29N 45°09' E 036°33'0 0.0
2017-Oct-19 01:59N 45°09' E 036°33'0 0.0
2017-Oct-19 00:50N 45°09' E 036°33'0 0.0
2017-Oct-19 00:26N 45°09' E 036°33'0 0.0
2017-Oct-18 23:56N 45°09' E 036°33'0 0.0
2017-Oct-18 23:29N 45°09' E 036°33'0 0.0
2017-Oct-18 22:53N 45°09' E 036°33'0 0.0
2017-Oct-18 22:29N 45°09' E 036°33'0 0.0
2017-Oct-18 21:59N 45°09' E 036°33'0 0.0
2017-Oct-18 20:53N 45°09' E 036°33'0 0.0
2017-Oct-18 20:29N 45°09' E 036°33'0 0.0
2017-Oct-18 19:53N 45°09' E 036°33'0 0.0
2017-Oct-18 18:50N 45°09' E 036°33'0 0.0
2017-Oct-18 18:29N 45°09' E 036°33'0 0.0
2017-Oct-18 17:59N 45°09' E 036°33'0 0.0
2017-Oct-18 16:44N 45°09' E 036°33'0 0.0
2017-Oct-18 16:29N 45°09' E 036°33'0 0.0
2017-Oct-18 15:56N 45°09' E 036°33'0 0.0
2017-Oct-18 13:05N 45°09' E 036°33'0 0.0
2017-Oct-18 12:59N 45°09' E 036°33'0 0.0
2017-Oct-18 12:29N 45°09' E 036°33'0 0.0
2017-Oct-18 11:53N 45°09' E 036°33'0 0.2
2017-Oct-18 11:29N 45°09' E 036°33'0 0.2
2017-Oct-18 10:59N 45°09' E 036°33'0 0.1
2017-Oct-18 10:29N 45°09' E 036°33'0 0.0
2017-Oct-18 09:59N 45°09' E 036°33'0 0.1
2017-Oct-18 09:29N 45°09' E 036°33'0 0.1
2017-Oct-18 08:56N 45°09' E 036°33'0 0.0
2017-Oct-18 08:29N 45°09' E 036°33'0 0.0
2017-Oct-18 07:59N 45°09' E 036°33'0 0.0
2017-Oct-18 07:26N 45°09' E 036°33'0 0.0
2017-Oct-18 06:59N 45°09' E 036°33'0 0.1
2017-Oct-18 06:29N 45°09' E 036°33'0 0.0
2017-Oct-18 05:59N 45°09' E 036°33'0 0.0
2017-Oct-18 05:29N 45°09' E 036°33'0 0.0
2017-Oct-18 04:59N 45°09' E 036°33'0 0.1
2017-Oct-18 04:26N 45°09' E 036°33'0 0.0
2017-Oct-18 03:59N 45°09' E 036°33'0 0.0
2017-Oct-18 03:29N 45°09' E 036°33'0 0.1
2017-Oct-18 02:59N 45°09' E 036°33'0 0.1
2017-Oct-18 02:29N 45°09' E 036°33'0 0.0
2017-Oct-18 01:38N 45°09' E 036°33'0 0.1
2017-Oct-18 01:29N 45°09' E 036°33'0 0.0
2017-Oct-18 00:59N 45°09' E 036°33'0 0.1
2017-Oct-18 00:29N 45°09' E 036°33'0 0.0
2017-Oct-17 23:11N 45°09' E 036°33'0 0.1
2017-Oct-17 22:41N 45°09' E 036°33'0 0.0
2017-Oct-17 22:29N 45°09' E 036°33'0 0.0
2017-Oct-17 21:59N 45°09' E 036°33'0 0.0
2017-Oct-17 21:20N 45°09' E 036°33'0 0.0
2017-Oct-17 20:53N 45°09' E 036°33'0 0.0
2017-Oct-17 20:23N 45°09' E 036°33'0 0.0
2017-Oct-17 19:56N 45°09' E 036°33'0 0.0
2017-Oct-17 19:26N 45°09' E 036°33'  

Dump ship's entire track history